sensor_id;sensor_type;location;lat;lon;timestamp;temperature;humidity
31677;DHT22;18385;51.572;6.578;2022-08-04T00:00:41;27.30;47.30
31677;DHT22;18385;51.572;6.578;2022-08-04T00:03:18;27.30;46.60
31677;DHT22;18385;51.572;6.578;2022-08-04T00:05:53;27.30;46.90
31677;DHT22;18385;51.572;6.578;2022-08-04T00:08:45;27.30;47.00
31677;DHT22;18385;51.572;6.578;2022-08-04T00:11:15;27.20;46.90
31677;DHT22;18385;51.572;6.578;2022-08-04T00:13:52;27.20;47.10
31677;DHT22;18385;51.572;6.578;2022-08-04T00:16:22;27.20;47.10
31677;DHT22;18385;51.572;6.578;2022-08-04T00:19:03;27.20;47.20
31677;DHT22;18385;51.572;6.578;2022-08-04T00:21:30;27.20;47.30
31677;DHT22;18385;51.572;6.578;2022-08-04T00:24:00;27.20;47.40
31677;DHT22;18385;51.572;6.578;2022-08-04T00:26:26;27.20;47.40
31677;DHT22;18385;51.572;6.578;2022-08-04T00:28:52;27.20;47.40
31677;DHT22;18385;51.572;6.578;2022-08-04T00:31:18;27.10;47.50
31677;DHT22;18385;51.572;6.578;2022-08-04T00:33:45;27.10;47.50
31677;DHT22;18385;51.572;6.578;2022-08-04T00:36:11;27.10;47.60
31677;DHT22;18385;51.572;6.578;2022-08-04T00:38:40;27.10;47.70
31677;DHT22;18385;51.572;6.578;2022-08-04T00:41:34;27.00;47.80
31677;DHT22;18385;51.572;6.578;2022-08-04T00:44:29;27.00;48.00
31677;DHT22;18385;51.572;6.578;2022-08-04T00:50:11;26.90;48.10
31677;DHT22;18385;51.572;6.578;2022-08-04T01:00:13;26.70;48.30
31677;DHT22;18385;51.572;6.578;2022-08-04T01:02:58;26.70;48.40
31677;DHT22;18385;51.572;6.578;2022-08-04T01:16:52;26.50;48.90
31677;DHT22;18385;51.572;6.578;2022-08-04T01:25:19;26.40;49.00
31677;DHT22;18385;51.572;6.578;2022-08-04T01:30:34;26.30;49.20
31677;DHT22;18385;51.572;6.578;2022-08-04T01:33:07;26.30;49.40
31677;DHT22;18385;51.572;6.578;2022-08-04T01:35:55;26.30;49.50
31677;DHT22;18385;51.572;6.578;2022-08-04T01:38:35;26.30;49.50
31677;DHT22;18385;51.572;6.578;2022-08-04T01:41:13;26.30;49.60
31677;DHT22;18385;51.572;6.578;2022-08-04T01:43:42;26.30;49.80
31677;DHT22;18385;51.572;6.578;2022-08-04T01:46:14;26.30;49.80
31677;DHT22;18385;51.572;6.578;2022-08-04T01:48:45;26.30;49.80
31677;DHT22;18385;51.572;6.578;2022-08-04T01:51:11;26.30;49.90
31677;DHT22;18385;51.572;6.578;2022-08-04T01:53:39;26.30;50.00
31677;DHT22;18385;51.572;6.578;2022-08-04T01:56:07;26.30;50.00
31677;DHT22;18385;51.572;6.578;2022-08-04T01:58:35;26.20;50.00
31677;DHT22;18385;51.572;6.578;2022-08-04T02:01:10;26.20;50.00
31677;DHT22;18385;51.572;6.578;2022-08-04T02:03:38;26.10;50.20
31677;DHT22;18385;51.572;6.578;2022-08-04T02:06:17;26.10;50.20
31677;DHT22;18385;51.572;6.578;2022-08-04T02:09:15;26.10;50.30
31677;DHT22;18385;51.572;6.578;2022-08-04T02:12:04;26.10;50.40
31677;DHT22;18385;51.572;6.578;2022-08-04T02:14:48;26.00;50.50
31677;DHT22;18385;51.572;6.578;2022-08-04T02:17:27;26.00;50.60
31677;DHT22;18385;51.572;6.578;2022-08-04T02:20:21;25.90;50.60
31677;DHT22;18385;51.572;6.578;2022-08-04T02:22:58;25.90;50.50
31677;DHT22;18385;51.572;6.578;2022-08-04T02:25:27;25.90;50.70
31677;DHT22;18385;51.572;6.578;2022-08-04T02:30:32;25.90;50.70
31677;DHT22;18385;51.572;6.578;2022-08-04T02:33:01;25.90;50.80
31677;DHT22;18385;51.572;6.578;2022-08-04T02:35:28;25.90;50.90
31677;DHT22;18385;51.572;6.578;2022-08-04T02:38:12;25.90;50.90
31677;DHT22;18385;51.572;6.578;2022-08-04T02:40:41;25.90;50.90
31677;DHT22;18385;51.572;6.578;2022-08-04T02:43:09;25.90;50.90
31677;DHT22;18385;51.572;6.578;2022-08-04T02:45:35;25.90;50.90
31677;DHT22;18385;51.572;6.578;2022-08-04T02:48:03;25.90;50.90
31677;DHT22;18385;51.572;6.578;2022-08-04T02:50:33;25.90;50.90
31677;DHT22;18385;51.572;6.578;2022-08-04T02:53:02;25.90;50.90
31677;DHT22;18385;51.572;6.578;2022-08-04T02:55:29;25.90;50.90
31677;DHT22;18385;51.572;6.578;2022-08-04T02:57:57;25.90;51.00
31677;DHT22;18385;51.572;6.578;2022-08-04T03:00:23;25.90;51.00
31677;DHT22;18385;51.572;6.578;2022-08-04T03:05:37;25.90;51.10
31677;DHT22;18385;51.572;6.578;2022-08-04T03:08:29;25.80;51.20
31677;DHT22;18385;51.572;6.578;2022-08-04T03:22:22;25.80;51.30
31677;DHT22;18385;51.572;6.578;2022-08-04T03:25:22;25.80;51.40
31677;DHT22;18385;51.572;6.578;2022-08-04T03:39:08;25.60;51.60
31677;DHT22;18385;51.572;6.578;2022-08-04T03:44:52;25.60;51.70
31677;DHT22;18385;51.572;6.578;2022-08-04T03:53:02;25.40;51.90
31677;DHT22;18385;51.572;6.578;2022-08-04T03:56:14;25.40;52.00
31677;DHT22;18385;51.572;6.578;2022-08-04T04:01:47;25.30;52.10
31677;DHT22;18385;51.572;6.578;2022-08-04T04:16:06;25.20;52.00
31677;DHT22;18385;51.572;6.578;2022-08-04T04:46:01;25.20;52.40
31677;DHT22;18385;51.572;6.578;2022-08-04T04:51:32;25.40;52.50
31677;DHT22;18385;51.572;6.578;2022-08-04T04:54:17;25.40;52.40
31677;DHT22;18385;51.572;6.578;2022-08-04T04:57:12;25.50;52.40
31677;DHT22;18385;51.572;6.578;2022-08-04T04:59:48;25.50;52.40
31677;DHT22;18385;51.572;6.578;2022-08-04T05:05:27;25.60;52.30
31677;DHT22;18385;51.572;6.578;2022-08-04T05:13:49;25.80;52.40
31677;DHT22;18385;51.572;6.578;2022-08-04T05:16:36;25.80;52.30
31677;DHT22;18385;51.572;6.578;2022-08-04T05:19:22;25.90;52.30
31677;DHT22;18385;51.572;6.578;2022-08-04T05:24:23;26.10;52.20
31677;DHT22;18385;51.572;6.578;2022-08-04T05:26:54;26.20;52.10
31677;DHT22;18385;51.572;6.578;2022-08-04T05:29:32;26.20;52.10
31677;DHT22;18385;51.572;6.578;2022-08-04T05:32:01;26.20;52.00
31677;DHT22;18385;51.572;6.578;2022-08-04T05:34:33;26.30;52.10
31677;DHT22;18385;51.572;6.578;2022-08-04T05:37:06;26.30;52.10
31677;DHT22;18385;51.572;6.578;2022-08-04T05:39:43;26.30;52.10
31677;DHT22;18385;51.572;6.578;2022-08-04T05:42:10;26.30;52.20
31677;DHT22;18385;51.572;6.578;2022-08-04T05:44:38;26.30;52.20
31677;DHT22;18385;51.572;6.578;2022-08-04T05:47:05;26.30;52.10
31677;DHT22;18385;51.572;6.578;2022-08-04T05:49:32;26.30;52.10
31677;DHT22;18385;51.572;6.578;2022-08-04T05:52:02;26.30;52.20
31677;DHT22;18385;51.572;6.578;2022-08-04T05:54:33;26.40;52.20
31677;DHT22;18385;51.572;6.578;2022-08-04T05:57:02;26.40;52.20
31677;DHT22;18385;51.572;6.578;2022-08-04T05:59:30;26.50;52.20
31677;DHT22;18385;51.572;6.578;2022-08-04T06:01:58;26.50;52.10
31677;DHT22;18385;51.572;6.578;2022-08-04T06:04:46;26.60;52.00
31677;DHT22;18385;51.572;6.578;2022-08-04T06:07:13;26.70;52.00
31677;DHT22;18385;51.572;6.578;2022-08-04T06:09:39;26.70;52.00
31677;DHT22;18385;51.572;6.578;2022-08-04T06:12:44;26.80;51.90
31677;DHT22;18385;51.572;6.578;2022-08-04T06:15:03;26.90;52.00
31677;DHT22;18385;51.572;6.578;2022-08-04T06:17:34;26.90;51.80
31677;DHT22;18385;51.572;6.578;2022-08-04T06:20:04;27.10;51.80
31677;DHT22;18385;51.572;6.578;2022-08-04T06:22:32;27.20;51.60
31677;DHT22;18385;51.572;6.578;2022-08-04T06:25:00;27.30;51.60
31677;DHT22;18385;51.572;6.578;2022-08-04T06:27:28;27.50;51.40
31677;DHT22;18385;51.572;6.578;2022-08-04T06:29:55;27.70;51.30
31677;DHT22;18385;51.572;6.578;2022-08-04T06:32:23;27.80;50.90
31677;DHT22;18385;51.572;6.578;2022-08-04T06:35:01;28.00;50.70
31677;DHT22;18385;51.572;6.578;2022-08-04T06:37:28;28.10;50.30
31677;DHT22;18385;51.572;6.578;2022-08-04T06:39:54;28.30;50.40
31677;DHT22;18385;51.572;6.578;2022-08-04T06:42:25;28.40;50.00
31677;DHT22;18385;51.572;6.578;2022-08-04T06:44:55;28.40;49.80
31677;DHT22;18385;51.572;6.578;2022-08-04T06:47:23;28.40;49.70
31677;DHT22;18385;51.572;6.578;2022-08-04T06:49:51;28.50;49.70
31677;DHT22;18385;51.572;6.578;2022-08-04T06:52:19;28.50;49.50
31677;DHT22;18385;51.572;6.578;2022-08-04T06:54:50;28.60;49.50
31677;DHT22;18385;51.572;6.578;2022-08-04T06:57:22;28.70;49.30
31677;DHT22;18385;51.572;6.578;2022-08-04T06:59:52;28.70;49.10
31677;DHT22;18385;51.572;6.578;2022-08-04T07:02:24;28.80;49.00
31677;DHT22;18385;51.572;6.578;2022-08-04T07:04:51;28.80;48.90
31677;DHT22;18385;51.572;6.578;2022-08-04T07:07:18;28.90;48.80
31677;DHT22;18385;51.572;6.578;2022-08-04T07:09:44;29.00;48.70
31677;DHT22;18385;51.572;6.578;2022-08-04T07:12:11;29.10;48.60
31677;DHT22;18385;51.572;6.578;2022-08-04T07:14:39;29.20;48.30
31677;DHT22;18385;51.572;6.578;2022-08-04T07:17:07;29.40;48.20
31677;DHT22;18385;51.572;6.578;2022-08-04T07:19:37;29.50;47.90
31677;DHT22;18385;51.572;6.578;2022-08-04T07:22:06;29.50;47.70
31677;DHT22;18385;51.572;6.578;2022-08-04T07:24:35;29.60;47.80
31677;DHT22;18385;51.572;6.578;2022-08-04T07:27:02;29.60;47.60
31677;DHT22;18385;51.572;6.578;2022-08-04T07:29:28;29.60;47.40
31677;DHT22;18385;51.572;6.578;2022-08-04T07:31:55;29.70;47.40
31677;DHT22;18385;51.572;6.578;2022-08-04T07:34:21;29.70;47.30
31677;DHT22;18385;51.572;6.578;2022-08-04T07:36:53;29.80;47.30
31677;DHT22;18385;51.572;6.578;2022-08-04T07:39:20;29.80;47.10
31677;DHT22;18385;51.572;6.578;2022-08-04T07:41:47;29.90;47.00
31677;DHT22;18385;51.572;6.578;2022-08-04T07:44:14;30.00;47.00
31677;DHT22;18385;51.572;6.578;2022-08-04T07:46:41;30.00;46.70
31677;DHT22;18385;51.572;6.578;2022-08-04T07:49:07;30.00;46.60
31677;DHT22;18385;51.572;6.578;2022-08-04T07:51:35;30.00;46.60
31677;DHT22;18385;51.572;6.578;2022-08-04T07:54:02;30.00;46.50
31677;DHT22;18385;51.572;6.578;2022-08-04T07:56:30;30.10;46.50
31677;DHT22;18385;51.572;6.578;2022-08-04T07:58:56;30.10;46.30
31677;DHT22;18385;51.572;6.578;2022-08-04T08:01:23;30.20;46.30
31677;DHT22;18385;51.572;6.578;2022-08-04T08:03:50;30.20;46.20
31677;DHT22;18385;51.572;6.578;2022-08-04T08:06:16;30.30;45.90
31677;DHT22;18385;51.572;6.578;2022-08-04T08:08:41;30.40;45.80
31677;DHT22;18385;51.572;6.578;2022-08-04T08:11:07;30.40;45.60
31677;DHT22;18385;51.572;6.578;2022-08-04T08:13:34;30.30;45.50
31677;DHT22;18385;51.572;6.578;2022-08-04T08:16:01;30.40;45.50
31677;DHT22;18385;51.572;6.578;2022-08-04T08:18:29;30.40;45.50
31677;DHT22;18385;51.572;6.578;2022-08-04T08:20:55;30.50;45.40
31677;DHT22;18385;51.572;6.578;2022-08-04T08:23:21;30.60;45.40
31677;DHT22;18385;51.572;6.578;2022-08-04T08:25:47;30.60;45.20
31677;DHT22;18385;51.572;6.578;2022-08-04T08:28:12;30.70;45.10
31677;DHT22;18385;51.572;6.578;2022-08-04T08:30:40;30.80;44.70
31677;DHT22;18385;51.572;6.578;2022-08-04T08:33:07;31.00;44.60
31677;DHT22;18385;51.572;6.578;2022-08-04T08:35:51;31.10;44.60
31677;DHT22;18385;51.572;6.578;2022-08-04T08:43:44;31.60;44.00
31677;DHT22;18385;51.572;6.578;2022-08-04T08:46:37;31.70;43.90
31677;DHT22;18385;51.572;6.578;2022-08-04T08:54:27;32.00;43.20
31677;DHT22;18385;51.572;6.578;2022-08-04T08:59:49;32.20;42.90
31677;DHT22;18385;51.572;6.578;2022-08-04T09:02:40;32.20;42.60
31677;DHT22;18385;51.572;6.578;2022-08-04T09:12:01;32.00;42.90
31677;DHT22;18385;51.572;6.578;2022-08-04T09:14:28;32.10;42.60
31677;DHT22;18385;51.572;6.578;2022-08-04T09:17:02;32.20;42.60
31677;DHT22;18385;51.572;6.578;2022-08-04T09:19:42;32.30;42.30
31677;DHT22;18385;51.572;6.578;2022-08-04T09:22:21;32.40;42.70
31677;DHT22;18385;51.572;6.578;2022-08-04T09:25:13;32.50;42.00
31677;DHT22;18385;51.572;6.578;2022-08-04T09:28:18;32.70;41.90
31677;DHT22;18385;51.572;6.578;2022-08-04T09:31:12;32.80;42.40
31677;DHT22;18385;51.572;6.578;2022-08-04T09:39:07;32.90;41.20
31677;DHT22;18385;51.572;6.578;2022-08-04T09:41:51;33.00;41.00
31677;DHT22;18385;51.572;6.578;2022-08-04T09:44:39;33.00;40.90
31677;DHT22;18385;51.572;6.578;2022-08-04T09:47:16;33.10;40.70
31677;DHT22;18385;51.572;6.578;2022-08-04T09:49:57;33.20;40.70
31677;DHT22;18385;51.572;6.578;2022-08-04T10:00:47;33.50;39.60
31677;DHT22;18385;51.572;6.578;2022-08-04T10:03:15;33.50;39.50
31677;DHT22;18385;51.572;6.578;2022-08-04T10:11:20;33.60;39.30
31677;DHT22;18385;51.572;6.578;2022-08-04T10:14:12;33.80;39.10
31677;DHT22;18385;51.572;6.578;2022-08-04T10:16:52;34.20;38.90
31677;DHT22;18385;51.572;6.578;2022-08-04T10:22:20;34.70;37.80
31677;DHT22;18385;51.572;6.578;2022-08-04T10:27:50;34.90;37.10
31677;DHT22;18385;51.572;6.578;2022-08-04T10:30:18;35.00;37.10
31677;DHT22;18385;51.572;6.578;2022-08-04T10:35:25;35.50;36.80
31677;DHT22;18385;51.572;6.578;2022-08-04T10:41:29;35.70;36.50
31677;DHT22;18385;51.572;6.578;2022-08-04T10:47:03;35.80;36.00
31677;DHT22;18385;51.572;6.578;2022-08-04T10:49:38;36.00;35.60
31677;DHT22;18385;51.572;6.578;2022-08-04T10:52:34;36.30;35.50
31677;DHT22;18385;51.572;6.578;2022-08-04T10:55:15;36.30;35.00
31677;DHT22;18385;51.572;6.578;2022-08-04T10:57:50;36.30;34.80
31677;DHT22;18385;51.572;6.578;2022-08-04T11:00:24;36.00;34.50
31677;DHT22;18385;51.572;6.578;2022-08-04T11:05:40;35.40;34.90
31677;DHT22;18385;51.572;6.578;2022-08-04T11:11:15;35.40;35.20
31677;DHT22;18385;51.572;6.578;2022-08-04T11:14:05;35.20;34.80
31677;DHT22;18385;51.572;6.578;2022-08-04T11:21:56;35.10;35.00
31677;DHT22;18385;51.572;6.578;2022-08-04T11:24:30;35.20;34.80
31677;DHT22;18385;51.572;6.578;2022-08-04T11:27:00;35.40;34.70
31677;DHT22;18385;51.572;6.578;2022-08-04T11:32:09;35.20;34.20
31677;DHT22;18385;51.572;6.578;2022-08-04T11:34:42;35.00;34.20
31677;DHT22;18385;51.572;6.578;2022-08-04T11:37:44;34.60;34.60
31677;DHT22;18385;51.572;6.578;2022-08-04T11:40:19;34.10;34.90
31677;DHT22;18385;51.572;6.578;2022-08-04T11:43:00;33.60;35.80
31677;DHT22;18385;51.572;6.578;2022-08-04T11:45:40;33.20;36.30
31677;DHT22;18385;51.572;6.578;2022-08-04T11:48:14;32.90;36.60
31677;DHT22;18385;51.572;6.578;2022-08-04T11:50:49;32.70;37.10
31677;DHT22;18385;51.572;6.578;2022-08-04T11:53:18;32.50;37.40
31677;DHT22;18385;51.572;6.578;2022-08-04T11:55:48;32.50;37.90
31677;DHT22;18385;51.572;6.578;2022-08-04T11:58:15;32.60;38.10
31677;DHT22;18385;51.572;6.578;2022-08-04T12:04:04;32.70;38.50
31677;DHT22;18385;51.572;6.578;2022-08-04T12:06:54;32.80;38.80
31677;DHT22;18385;51.572;6.578;2022-08-04T12:09:54;32.90;38.60
31677;DHT22;18385;51.572;6.578;2022-08-04T12:12:45;32.80;38.70
31677;DHT22;18385;51.572;6.578;2022-08-04T12:15:44;32.90;39.00
31677;DHT22;18385;51.572;6.578;2022-08-04T12:18:20;33.10;39.00
31677;DHT22;18385;51.572;6.578;2022-08-04T12:20:50;33.30;39.20
31677;DHT22;18385;51.572;6.578;2022-08-04T12:23:35;33.40;39.20
31677;DHT22;18385;51.572;6.578;2022-08-04T12:26:06;33.60;39.00
31677;DHT22;18385;51.572;6.578;2022-08-04T12:28:36;33.80;38.80
31677;DHT22;18385;51.572;6.578;2022-08-04T12:31:34;33.80;38.90
31677;DHT22;18385;51.572;6.578;2022-08-04T12:34:13;34.00;39.00
31677;DHT22;18385;51.572;6.578;2022-08-04T12:36:53;34.20;38.90
31677;DHT22;18385;51.572;6.578;2022-08-04T12:39:21;34.30;38.70
31677;DHT22;18385;51.572;6.578;2022-08-04T12:42:15;34.40;38.80
31677;DHT22;18385;51.572;6.578;2022-08-04T12:44:43;34.40;38.50
31677;DHT22;18385;51.572;6.578;2022-08-04T12:47:13;34.30;38.50
31677;DHT22;18385;51.572;6.578;2022-08-04T12:49:43;34.30;38.50
31677;DHT22;18385;51.572;6.578;2022-08-04T12:52:12;34.40;38.40
31677;DHT22;18385;51.572;6.578;2022-08-04T12:54:40;34.70;38.50
31677;DHT22;18385;51.572;6.578;2022-08-04T12:57:08;34.90;38.10
31677;DHT22;18385;51.572;6.578;2022-08-04T12:59:45;35.00;38.20
31677;DHT22;18385;51.572;6.578;2022-08-04T13:02:25;35.00;37.70
31677;DHT22;18385;51.572;6.578;2022-08-04T13:04:52;35.00;38.00
31677;DHT22;18385;51.572;6.578;2022-08-04T13:07:21;34.70;37.50
31677;DHT22;18385;51.572;6.578;2022-08-04T13:09:47;34.70;37.60
31677;DHT22;18385;51.572;6.578;2022-08-04T13:12:25;34.80;37.40
31677;DHT22;18385;51.572;6.578;2022-08-04T13:14:58;35.00;38.20
31677;DHT22;18385;51.572;6.578;2022-08-04T13:17:25;35.10;37.40
31677;DHT22;18385;51.572;6.578;2022-08-04T13:19:51;35.70;37.90
31677;DHT22;18385;51.572;6.578;2022-08-04T13:22:26;36.80;37.60
31677;DHT22;18385;51.572;6.578;2022-08-04T13:24:54;37.40;36.30
31677;DHT22;18385;51.572;6.578;2022-08-04T13:27:20;38.20;36.30
31677;DHT22;18385;51.572;6.578;2022-08-04T13:29:50;39.00;35.30
31677;DHT22;18385;51.572;6.578;2022-08-04T13:32:22;39.30;34.40
31677;DHT22;18385;51.572;6.578;2022-08-04T13:34:51;39.30;33.50
31677;DHT22;18385;51.572;6.578;2022-08-04T13:37:19;38.90;33.00
31677;DHT22;18385;51.572;6.578;2022-08-04T13:39:48;38.50;33.00
31677;DHT22;18385;51.572;6.578;2022-08-04T13:42:15;37.90;32.80
31677;DHT22;18385;51.572;6.578;2022-08-04T13:44:46;37.20;33.20
31677;DHT22;18385;51.572;6.578;2022-08-04T13:47:20;36.70;33.80
31677;DHT22;18385;51.572;6.578;2022-08-04T13:50:16;36.40;34.10
31677;DHT22;18385;51.572;6.578;2022-08-04T13:52:43;36.30;34.50
31677;DHT22;18385;51.572;6.578;2022-08-04T13:55:30;36.30;34.20
31677;DHT22;18385;51.572;6.578;2022-08-04T13:58:00;36.50;34.80
31677;DHT22;18385;51.572;6.578;2022-08-04T14:00:39;37.00;34.70
31677;DHT22;18385;51.572;6.578;2022-08-04T14:03:07;38.30;34.30
31677;DHT22;18385;51.572;6.578;2022-08-04T14:05:33;39.00;32.80
31677;DHT22;18385;51.572;6.578;2022-08-04T14:08:16;39.10;31.70
31677;DHT22;18385;51.572;6.578;2022-08-04T14:10:55;38.70;31.90
31677;DHT22;18385;51.572;6.578;2022-08-04T14:13:28;38.70;32.00
31677;DHT22;18385;51.572;6.578;2022-08-04T14:15:55;38.30;31.40
31677;DHT22;18385;51.572;6.578;2022-08-04T14:21:04;36.90;32.20
31677;DHT22;18385;51.572;6.578;2022-08-04T14:26:33;36.20;32.80
31677;DHT22;18385;51.572;6.578;2022-08-04T14:29:14;35.90;32.70
31677;DHT22;18385;51.572;6.578;2022-08-04T14:31:40;35.60;32.90
31677;DHT22;18385;51.572;6.578;2022-08-04T14:34:06;35.30;33.10
31677;DHT22;18385;51.572;6.578;2022-08-04T14:36:43;35.10;33.20
31677;DHT22;18385;51.572;6.578;2022-08-04T14:39:09;34.80;33.30
31677;DHT22;18385;51.572;6.578;2022-08-04T14:41:46;34.50;33.60
31677;DHT22;18385;51.572;6.578;2022-08-04T14:44:11;34.10;34.60
31677;DHT22;18385;51.572;6.578;2022-08-04T14:46:55;33.80;34.30
31677;DHT22;18385;51.572;6.578;2022-08-04T14:49:23;33.50;34.70
31677;DHT22;18385;51.572;6.578;2022-08-04T14:51:59;33.30;34.80
31677;DHT22;18385;51.572;6.578;2022-08-04T14:54:31;33.20;35.30
31677;DHT22;18385;51.572;6.578;2022-08-04T14:57:00;33.00;35.40
31677;DHT22;18385;51.572;6.578;2022-08-04T14:59:26;32.90;35.70
31677;DHT22;18385;51.572;6.578;2022-08-04T15:02:04;32.90;36.10
31677;DHT22;18385;51.572;6.578;2022-08-04T15:04:30;33.00;36.10
31677;DHT22;18385;51.572;6.578;2022-08-04T15:06:56;33.00;36.30
31677;DHT22;18385;51.572;6.578;2022-08-04T15:09:23;33.00;36.50
31677;DHT22;18385;51.572;6.578;2022-08-04T15:11:48;33.00;36.80
31677;DHT22;18385;51.572;6.578;2022-08-04T15:14:14;33.10;36.80
31677;DHT22;18385;51.572;6.578;2022-08-04T15:16:40;33.00;36.80
31677;DHT22;18385;51.572;6.578;2022-08-04T15:19:06;33.10;37.00
31677;DHT22;18385;51.572;6.578;2022-08-04T15:21:32;33.30;37.30
31677;DHT22;18385;51.572;6.578;2022-08-04T15:23:59;33.90;37.60
31677;DHT22;18385;51.572;6.578;2022-08-04T15:26:32;34.90;37.10
31677;DHT22;18385;51.572;6.578;2022-08-04T15:29:05;35.10;35.60
31677;DHT22;18385;51.572;6.578;2022-08-04T15:31:36;34.60;35.60
31677;DHT22;18385;51.572;6.578;2022-08-04T15:34:04;34.10;36.20
31677;DHT22;18385;51.572;6.578;2022-08-04T15:44:29;34.70;36.90
31677;DHT22;18385;51.572;6.578;2022-08-04T15:49:29;34.20;37.40
31677;DHT22;18385;51.572;6.578;2022-08-04T15:52:00;34.30;37.70
31677;DHT22;18385;51.572;6.578;2022-08-04T15:54:27;34.50;37.50
31677;DHT22;18385;51.572;6.578;2022-08-04T15:56:53;34.30;37.30
31677;DHT22;18385;51.572;6.578;2022-08-04T16:02:35;34.10;38.00
31677;DHT22;18385;51.572;6.578;2022-08-04T16:05:28;33.90;37.90
31677;DHT22;18385;51.572;6.578;2022-08-04T16:08:07;33.70;38.10
31677;DHT22;18385;51.572;6.578;2022-08-04T16:10:41;33.40;38.30
31677;DHT22;18385;51.572;6.578;2022-08-04T16:13:08;33.10;38.60
31677;DHT22;18385;51.572;6.578;2022-08-04T16:15:38;33.10;38.90
31677;DHT22;18385;51.572;6.578;2022-08-04T16:18:04;33.20;38.70
31677;DHT22;18385;51.572;6.578;2022-08-04T16:20:31;33.30;38.60
31677;DHT22;18385;51.572;6.578;2022-08-04T16:23:02;33.40;38.50
31677;DHT22;18385;51.572;6.578;2022-08-04T16:25:43;33.20;38.50
31677;DHT22;18385;51.572;6.578;2022-08-04T16:31:03;33.30;38.70
31677;DHT22;18385;51.572;6.578;2022-08-04T16:33:31;33.50;38.50
31677;DHT22;18385;51.572;6.578;2022-08-04T16:35:58;33.60;38.30
31677;DHT22;18385;51.572;6.578;2022-08-04T16:38:24;33.60;38.30
31677;DHT22;18385;51.572;6.578;2022-08-04T16:40:58;33.50;38.50
31677;DHT22;18385;51.572;6.578;2022-08-04T16:43:29;33.60;38.70
31677;DHT22;18385;51.572;6.578;2022-08-04T16:46:00;33.60;38.60
31677;DHT22;18385;51.572;6.578;2022-08-04T16:51:08;33.40;39.00
31677;DHT22;18385;51.572;6.578;2022-08-04T16:53:39;33.30;39.00
31677;DHT22;18385;51.572;6.578;2022-08-04T16:56:11;33.30;39.20
31677;DHT22;18385;51.572;6.578;2022-08-04T16:58:44;33.20;39.50
31677;DHT22;18385;51.572;6.578;2022-08-04T17:01:15;33.40;39.70
31677;DHT22;18385;51.572;6.578;2022-08-04T17:03:50;33.70;39.60
31677;DHT22;18385;51.572;6.578;2022-08-04T17:06:16;34.10;39.40
31677;DHT22;18385;51.572;6.578;2022-08-04T17:08:44;34.30;39.10
31677;DHT22;18385;51.572;6.578;2022-08-04T17:11:11;34.40;39.00
31677;DHT22;18385;51.572;6.578;2022-08-04T17:13:39;34.40;38.70
31677;DHT22;18385;51.572;6.578;2022-08-04T17:16:08;34.40;38.80
31677;DHT22;18385;51.572;6.578;2022-08-04T17:18:39;34.50;38.60
31677;DHT22;18385;51.572;6.578;2022-08-04T17:21:10;34.40;38.60
31677;DHT22;18385;51.572;6.578;2022-08-04T17:23:39;34.40;38.70
31677;DHT22;18385;51.572;6.578;2022-08-04T17:28:33;34.00;38.60
31677;DHT22;18385;51.572;6.578;2022-08-04T17:31:00;33.80;38.50
31677;DHT22;18385;51.572;6.578;2022-08-04T17:33:26;33.40;38.60
31677;DHT22;18385;51.572;6.578;2022-08-04T17:35:56;33.20;39.00
31677;DHT22;18385;51.572;6.578;2022-08-04T17:38:36;33.00;39.10
31677;DHT22;18385;51.572;6.578;2022-08-04T17:41:06;32.80;39.30
31677;DHT22;18385;51.572;6.578;2022-08-04T17:43:40;32.70;39.40
31677;DHT22;18385;51.572;6.578;2022-08-04T17:46:16;32.50;39.60
31677;DHT22;18385;51.572;6.578;2022-08-04T17:48:42;32.30;39.70
31677;DHT22;18385;51.572;6.578;2022-08-04T17:51:15;32.10;39.80
31677;DHT22;18385;51.572;6.578;2022-08-04T17:53:41;32.00;40.20
31677;DHT22;18385;51.572;6.578;2022-08-04T17:56:30;32.00;40.40
31677;DHT22;18385;51.572;6.578;2022-08-04T17:59:22;31.90;40.40
31677;DHT22;18385;51.572;6.578;2022-08-04T18:07:01;31.90;40.80
31677;DHT22;18385;51.572;6.578;2022-08-04T18:09:31;31.90;40.90
31677;DHT22;18385;51.572;6.578;2022-08-04T18:11:59;32.20;40.90
31677;DHT22;18385;51.572;6.578;2022-08-04T18:14:27;32.50;40.60
31677;DHT22;18385;51.572;6.578;2022-08-04T18:16:53;32.90;40.30
31677;DHT22;18385;51.572;6.578;2022-08-04T18:19:19;33.30;39.80
31677;DHT22;18385;51.572;6.578;2022-08-04T18:21:46;33.50;39.40
31677;DHT22;18385;51.572;6.578;2022-08-04T18:24:13;33.40;39.30
31677;DHT22;18385;51.572;6.578;2022-08-04T18:26:39;33.10;39.30
31677;DHT22;18385;51.572;6.578;2022-08-04T18:29:06;32.70;39.70
31677;DHT22;18385;51.572;6.578;2022-08-04T18:31:33;32.30;40.30
31677;DHT22;18385;51.572;6.578;2022-08-04T18:33:59;31.90;40.70
31677;DHT22;18385;51.572;6.578;2022-08-04T18:36:25;31.60;41.20
31677;DHT22;18385;51.572;6.578;2022-08-04T18:38:51;31.40;41.60
31677;DHT22;18385;51.572;6.578;2022-08-04T18:41:16;31.20;41.90
31677;DHT22;18385;51.572;6.578;2022-08-04T18:43:42;31.00;42.40
31677;DHT22;18385;51.572;6.578;2022-08-04T18:46:08;30.90;42.60
31677;DHT22;18385;51.572;6.578;2022-08-04T18:48:33;30.70;42.80
31677;DHT22;18385;51.572;6.578;2022-08-04T18:50:59;30.60;43.10
31677;DHT22;18385;51.572;6.578;2022-08-04T18:53:25;30.50;43.40
31677;DHT22;18385;51.572;6.578;2022-08-04T18:55:51;30.30;43.50
31677;DHT22;18385;51.572;6.578;2022-08-04T18:58:16;30.20;43.70
31677;DHT22;18385;51.572;6.578;2022-08-04T19:00:42;30.10;43.90
31677;DHT22;18385;51.572;6.578;2022-08-04T19:03:08;30.00;44.10
31677;DHT22;18385;51.572;6.578;2022-08-04T19:05:33;29.90;44.20
31677;DHT22;18385;51.572;6.578;2022-08-04T19:07:59;29.80;44.40
31677;DHT22;18385;51.572;6.578;2022-08-04T19:10:25;29.80;44.70
31677;DHT22;18385;51.572;6.578;2022-08-04T19:12:50;29.70;44.70
31677;DHT22;18385;51.572;6.578;2022-08-04T19:15:16;29.60;44.90
31677;DHT22;18385;51.572;6.578;2022-08-04T19:17:42;29.60;45.00
31677;DHT22;18385;51.572;6.578;2022-08-04T19:20:08;29.50;45.00
31677;DHT22;18385;51.572;6.578;2022-08-04T19:22:34;29.40;45.10
31677;DHT22;18385;51.572;6.578;2022-08-04T19:24:59;29.30;45.20
31677;DHT22;18385;51.572;6.578;2022-08-04T19:27:25;29.10;45.30
31677;DHT22;18385;51.572;6.578;2022-08-04T19:29:51;29.00;45.40
31677;DHT22;18385;51.572;6.578;2022-08-04T19:32:17;28.90;45.50
31677;DHT22;18385;51.572;6.578;2022-08-04T19:34:44;28.80;45.50
31677;DHT22;18385;51.572;6.578;2022-08-04T19:37:09;28.80;45.70
31677;DHT22;18385;51.572;6.578;2022-08-04T19:39:35;28.70;45.70
31677;DHT22;18385;51.572;6.578;2022-08-04T19:42:01;28.60;45.60
31677;DHT22;18385;51.572;6.578;2022-08-04T19:44:27;28.60;45.50
31677;DHT22;18385;51.572;6.578;2022-08-04T19:46:53;28.50;45.30
31677;DHT22;18385;51.572;6.578;2022-08-04T19:49:18;28.40;45.30